Time;durP1;ratioP1;P1;durP2;ratioP2;P2;SDS_P1;SDS_P2;PMS_P1;PMS_P2;Temp;Humidity;BMP_temperature;BMP_pressure;BME280_temperature;BME280_humidity;BME280_pressure;Samples;Min_cycle;Max_cycle;Signal;HPM_P1;HPM_P2
2022/03/01 05:08:46;;;;;;;;;;;;;;;3.47;57.30;97791.00;4220797;27;10245;-62
2022/03/01 05:10:48;;;;;;;;;;;;;;;3.53;57.02;97781.84;4230620;28;5703;-62
2022/03/01 05:12:55;;;;;;;;;;;;;;;3.55;56.96;97792.16;4231413;28;7754;-61
2022/03/01 05:14:56;;;;;;;;;;;;;;;3.58;56.70;97787.50;4221669;28;5645;-62
2022/03/01 05:16:58;;;;;;;;;;;;;;;3.48;57.09;97791.81;4223761;28;5623;-62
2022/03/01 05:19:00;;;;;;;;;;;;;;;3.62;56.81;97793.31;4231763;28;5173;-62
2022/03/01 05:21:02;;;;;;;;;;;;;;;3.65;56.64;97788.69;4231422;28;8445;-63
2022/03/01 05:23:03;;;;;;;;;;;;;;;3.64;56.25;97787.03;4231423;28;5649;-63
2022/03/01 05:25:09;;;;;;;;;;;;;;;3.69;56.57;97784.03;4230408;28;5627;-65
2022/03/01 05:27:10;;;;;;;;;;;;;;;3.70;56.40;97780.44;4220365;28;5711;-64
2022/03/01 05:29:12;;;;;;;;;;;;;;;3.64;56.09;97786.19;4213224;28;5671;-63
2022/03/01 05:31:15;;;;;;;;;;;;;;;3.66;56.19;97789.50;4214545;28;5648;-62
2022/03/01 05:33:17;;;;;;;;;;;;;;;3.70;55.99;97785.69;4231078;28;5605;-63
2022/03/01 05:35:21;;;;;;;;;;;;;;;3.67;56.09;97791.16;4231216;28;5605;-63
2022/03/01 05:37:23;;;;;;;;;;;;;;;3.67;56.23;97794.63;4230736;28;5629;-63
2022/03/01 05:39:24;;;;;;;;;;;;;;;3.68;56.22;97795.44;4223185;28;5609;-62
2022/03/01 05:41:26;;;;;;;;;;;;;;;3.65;56.36;97793.09;4230839;28;5632;-63
2022/03/01 05:43:28;;;;;;;;;;;;;;;3.60;56.29;97796.06;4228759;28;6328;-63
2022/03/01 05:45:30;;;;;;;;;;;;;;;3.58;56.38;97792.75;4214201;28;5627;-62
2022/03/01 05:47:32;;;;;;;;;;;;;;;3.64;56.35;97791.44;4230293;28;6405;-62
2022/03/01 05:49:34;;;;;;;;;;;;;;;3.65;56.40;97798.31;4231173;28;5810;-63
2022/03/01 05:51:35;;;;;;;;;;;;;;;3.56;56.65;97793.81;4227073;28;5660;-62
2022/03/01 05:53:37;;;;;;;;;;;;;;;3.58;56.71;97804.97;4214894;28;5698;-63
2022/03/01 05:55:39;;;;;;;;;;;;;;;3.64;56.54;97800.09;4226443;28;5681;-63
2022/03/01 05:57:41;;;;;;;;;;;;;;;3.69;56.51;97804.94;4230593;28;5740;-64
2022/03/01 05:59:43;;;;;;;;;;;;;;;3.71;56.58;97803.84;4230779;28;5807;-62
2022/03/01 06:01:44;;;;;;;;;;;;;;;3.73;56.39;97798.50;4231020;28;5613;-64
2022/03/01 06:03:48;;;;;;;;;;;;;;;3.80;56.31;97804.88;4230285;28;5633;-64
2022/03/01 06:05:50;;;;;;;;;;;;;;;3.80;56.27;97808.34;4230335;28;6357;-67
2022/03/01 06:07:52;;;;;;;;;;;;;;;3.81;56.21;97806.56;4229147;28;5707;-66
2022/03/01 06:09:53;;;;;;;;;;;;;;;3.72;56.67;97813.34;4206304;28;5631;-67
2022/03/01 06:11:55;;;;;;;;;;;;;;;3.64;56.66;97815.78;4202699;28;5628;-67
2022/03/01 06:13:59;;;;;;;;;;;;;;;3.60;56.79;97810.91;4202171;28;5647;-64
2022/03/01 06:16:01;;;;;;;;;;;;;;;3.59;56.89;97817.94;4211685;28;5722;-64
2022/03/01 06:18:03;;;;;;;;;;;;;;;3.63;56.93;97821.16;4207391;28;5668;-64
2022/03/01 06:20:09;;;;;;;;;;;;;;;3.63;56.98;97823.75;4215579;28;5846;-64
2022/03/01 06:22:11;;;;;;;;;;;;;;;3.62;57.04;97822.91;4213898;28;5719;-66
2022/03/01 06:24:13;;;;;;;;;;;;;;;3.65;57.04;97821.84;4208882;28;5684;-65
2022/03/01 06:26:22;;;;;;;;;;;;;;;3.67;57.05;97817.31;4214590;28;5787;-64
2022/03/01 06:28:24;;;;;;;;;;;;;;;3.66;57.26;97815.66;4213874;28;5612;-64
2022/03/01 06:30:26;;;;;;;;;;;;;;;3.69;57.27;97815.41;4213332;28;5617;-63
2022/03/01 06:32:27;;;;;;;;;;;;;;;3.69;57.25;97815.41;4193570;28;5688;-65
2022/03/01 06:34:30;;;;;;;;;;;;;;;3.63;57.33;97821.97;4217828;28;5821;-61
2022/03/01 06:36:52;;;;;;;;;;;;;;;3.70;57.09;97820.50;4205581;28;5636;-63
2022/03/01 06:38:54;;;;;;;;;;;;;;;3.65;57.49;97819.22;4212545;28;5833;-63
2022/03/01 06:40:56;;;;;;;;;;;;;;;3.59;57.38;97820.53;4212015;28;5727;-63
2022/03/01 06:42:58;;;;;;;;;;;;;;;3.45;57.75;97819.06;4207728;28;5876;-62
2022/03/01 06:44:59;;;;;;;;;;;;;;;3.28;58.02;97816.94;4210672;28;5617;-64
2022/03/01 06:47:03;;;;;;;;;;;;;;;3.37;57.99;97820.63;4217764;28;5724;-63
2022/03/01 06:49:05;;;;;;;;;;;;;;;3.04;58.32;97821.50;4216932;28;5628;-63
2022/03/01 06:51:07;;;;;;;;;;;;;;;2.96;58.50;97823.91;4208841;28;5817;-63
2022/03/01 06:53:10;;;;;;;;;;;;;;;2.96;58.49;97824.75;4217964;28;5084;-64
2022/03/01 06:55:13;;;;;;;;;;;;;;;3.12;57.78;97826.97;4218434;28;5672;-63
2022/03/01 06:57:16;;;;;;;;;;;;;;;3.35;57.38;97825.97;4218303;28;5616;-64
2022/03/01 06:59:18;;;;;;;;;;;;;;;3.43;57.01;97836.66;4217403;28;5104;-66
2022/03/01 07:01:20;;;;;;;;;;;;;;;3.43;56.89;97834.03;4217693;28;7712;-64
2022/03/01 07:03:23;;;;;;;;;;;;;;;3.52;56.77;97839.50;4217109;28;5676;-64
2022/03/01 07:05:25;;;;;;;;;;;;;;;3.53;56.79;97846.38;4201785;28;5790;-66
2022/03/01 07:07:29;;;;;;;;;;;;;;;3.36;56.57;97837.25;4209113;28;6381;-63
2022/03/01 07:09:30;;;;;;;;;;;;;;;3.51;56.64;97838.63;4206162;28;5778;-65
2022/03/01 07:11:32;;;;;;;;;;;;;;;3.56;56.72;97843.50;4201145;28;5695;-63
2022/03/01 07:13:34;;;;;;;;;;;;;;;3.64;56.60;97846.34;4201676;28;5705;-67
2022/03/01 07:15:37;;;;;;;;;;;;;;;3.68;56.65;97850.34;4201678;28;5648;-65
2022/03/01 07:17:39;;;;;;;;;;;;;;;3.70;56.61;97853.69;4201946;28;5624;-64
2022/03/01 07:19:41;;;;;;;;;;;;;;;3.61;57.25;97849.19;4201526;28;5770;-68
2022/03/01 07:21:45;;;;;;;;;;;;;;;3.51;57.47;97854.31;4200603;28;5635;-67
2022/03/01 07:23:47;;;;;;;;;;;;;;;3.48;57.68;97857.19;4207522;28;5617;-66
2022/03/01 07:25:49;;;;;;;;;;;;;;;3.48;57.81;97857.19;4200608;28;5631;-71
2022/03/01 07:27:53;;;;;;;;;;;;;;;3.57;57.71;97863.47;4218429;28;5704;-69
2022/03/01 07:29:55;;;;;;;;;;;;;;;3.52;57.80;97863.03;4218062;28;5652;-71
2022/03/01 07:31:58;;;;;;;;;;;;;;;3.68;57.41;97864.25;4217439;28;6386;-69
2022/03/01 07:34:00;;;;;;;;;;;;;;;3.75;57.31;97859.38;4217889;28;6724;-68
2022/03/01 07:36:02;;;;;;;;;;;;;;;3.79;57.21;97853.75;4218242;28;5617;-68
2022/03/01 07:38:03;;;;;;;;;;;;;;;3.59;57.81;97853.72;4218236;28;5931;-70
2022/03/01 07:40:08;;;;;;;;;;;;;;;3.70;57.44;97859.72;4201674;28;6552;-68
2022/03/01 07:42:10;;;;;;;;;;;;;;;3.70;57.81;97853.69;4209271;28;5777;-72
2022/03/01 07:44:12;;;;;;;;;;;;;;;3.57;58.41;97866.09;4217967;28;5682;-68
2022/03/01 07:46:14;;;;;;;;;;;;;;;3.60;58.78;97858.81;4217608;28;5666;-70
2022/03/01 07:48:16;;;;;;;;;;;;;;;3.79;58.62;97866.84;4211750;28;5806;-70
2022/03/01 07:50:18;;;;;;;;;;;;;;;3.87;58.90;97863.59;4201622;28;5635;-69
2022/03/01 07:52:19;;;;;;;;;;;;;;;3.75;58.56;97867.22;4216287;28;5700;-70
2022/03/01 07:54:23;;;;;;;;;;;;;;;3.88;58.39;97869.66;4217860;28;5714;-67
2022/03/01 07:56:25;;;;;;;;;;;;;;;3.97;57.86;97876.78;4218148;28;5621;-72
2022/03/01 07:58:27;;;;;;;;;;;;;;;4.00;57.74;97872.13;4205622;28;5631;-67
2022/03/01 08:00:29;;;;;;;;;;;;;;;3.97;57.56;97869.75;4217605;28;5648;-71
2022/03/01 08:02:31;;;;;;;;;;;;;;;4.03;57.46;97871.03;4216886;28;5711;-72
2022/03/01 08:04:33;;;;;;;;;;;;;;;4.03;57.49;97871.84;4218039;28;5671;-69
2022/03/01 08:06:35;;;;;;;;;;;;;;;3.98;58.36;97879.25;4217918;28;5621;-67
2022/03/01 08:08:39;;;;;;;;;;;;;;;4.01;58.49;97873.78;4216956;28;5687;-72
2022/03/01 08:10:41;;;;;;;;;;;;;;;3.94;58.88;97883.06;4200254;28;5710;-73
2022/03/01 08:13:03;;;;;;;;;;;;;;;3.92;60.00;97884.97;4200603;28;5691;-72
2022/03/01 08:15:05;;;;;;;;;;;;;;;4.06;59.04;97887.28;4200913;28;5624;-72
2022/03/01 08:17:07;;;;;;;;;;;;;;;4.18;59.67;97885.44;4201077;28;5538;-73
2022/03/01 08:19:09;;;;;;;;;;;;;;;4.06;60.59;97882.06;4200529;28;7050;-70
2022/03/01 08:21:12;;;;;;;;;;;;;;;4.11;60.06;97883.50;4200557;28;5714;-72
2022/03/01 08:23:15;;;;;;;;;;;;;;;4.25;59.77;97883.16;4182665;28;6344;-72
2022/03/01 08:25:18;;;;;;;;;;;;;;;4.29;59.81;97879.34;4200708;28;5741;-70
2022/03/01 08:27:20;;;;;;;;;;;;;;;4.21;60.38;97884.41;4200361;28;5719;-72
2022/03/01 08:29:22;;;;;;;;;;;;;;;4.32;60.31;97886.94;4200057;28;5632;-68
2022/03/01 08:31:24;;;;;;;;;;;;;;;4.22;61.39;97888.66;4199742;28;5679;-72
2022/03/01 08:33:26;;;;;;;;;;;;;;;4.31;61.40;97891.38;4208486;28;5625;-70
2022/03/01 08:35:28;;;;;;;;;;;;;;;4.36;61.01;97889.19;4217353;28;5761;-70
2022/03/01 08:37:32;;;;;;;;;;;;;;;4.42;60.89;97890.47;4216499;28;5702;-71
2022/03/01 08:39:34;;;;;;;;;;;;;;;4.40;60.73;97887.13;4217385;28;5684;-69
2022/03/01 08:41:36;;;;;;;;;;;;;;;4.32;60.40;97893.03;4216969;28;5652;-71
2022/03/01 08:43:38;;;;;;;;;;;;;;;4.32;60.25;97886.94;4205085;28;5636;-70
2022/03/01 08:45:42;;;;;;;;;;;;;;;4.37;60.53;97882.97;4200527;28;5719;-68
2022/03/01 08:47:44;;;;;;;;;;;;;;;4.37;60.74;97896.06;4202923;28;5809;-66
2022/03/01 08:49:47;;;;;;;;;;;;;;;4.43;60.47;97884.28;4217085;28;5616;-71
2022/03/01 08:51:49;;;;;;;;;;;;;;;4.45;60.59;97879.72;4216690;28;5621;-73
2022/03/01 08:53:54;;;;;;;;;;;;;;;4.42;61.15;97877.38;4208595;28;5674;-66
2022/03/01 08:55:56;;;;;;;;;;;;;;;4.23;61.41;97878.06;4217114;28;5665;-67
2022/03/01 08:57:59;;;;;;;;;;;;;;;4.17;61.37;97865.47;4216147;28;5702;-72
2022/03/01 09:00:00;;;;;;;;;;;;;;;4.43;60.71;97867.72;4217278;28;5775;-70
2022/03/01 09:02:04;;;;;;;;;;;;;;;4.65;59.93;97868.41;4197788;28;5640;-73
2022/03/01 09:04:07;;;;;;;;;;;;;;;4.71;60.06;97872.28;4216968;28;5656;-69
2022/03/01 09:06:09;;;;;;;;;;;;;;;4.77;60.04;97871.78;4207924;28;5735;-67
2022/03/01 09:08:14;;;;;;;;;;;;;;;4.58;60.69;97875.13;4200262;28;5785;-73
2022/03/01 09:10:21;;;;;;;;;;;;;;;4.49;61.06;97878.50;4200923;28;5828;-71
2022/03/01 09:12:23;;;;;;;;;;;;;;;4.73;60.21;97866.91;4215374;28;5700;-72
2022/03/01 09:14:25;;;;;;;;;;;;;;;4.83;60.01;97875.66;4214720;28;6414;-73
2022/03/01 09:16:27;;;;;;;;;;;;;;;4.51;61.17;97871.34;4216904;28;5885;-70
2022/03/01 09:18:29;;;;;;;;;;;;;;;4.57;61.27;97876.09;4216763;28;6955;-67
2022/03/01 09:20:32;;;;;;;;;;;;;;;4.73;60.93;97874.78;4216702;28;5803;-63
2022/03/01 09:22:34;;;;;;;;;;;;;;;4.81;60.81;97888.06;4216694;28;5693;-70
2022/03/01 09:24:36;;;;;;;;;;;;;;;4.78;60.86;97883.91;4216891;28;5694;-69
2022/03/01 09:26:37;;;;;;;;;;;;;;;4.98;60.64;97882.19;4206327;28;5691;-70
2022/03/01 09:28:39;;;;;;;;;;;;;;;4.99;60.44;97880.44;4215801;28;5633;-65
2022/03/01 09:30:41;;;;;;;;;;;;;;;4.65;61.53;97878.91;4216441;28;5699;-68
2022/03/01 09:32:44;;;;;;;;;;;;;;;4.93;60.81;97879.97;4215143;28;5739;-72
2022/03/01 09:34:46;;;;;;;;;;;;;;;4.94;60.60;97884.25;4186414;28;5647;-71
2022/03/01 09:36:48;;;;;;;;;;;;;;;4.91;60.58;97878.47;4206299;28;5695;-73
2022/03/01 09:38:53;;;;;;;;;;;;;;;4.78;60.51;97870.81;4216591;28;6306;-71
2022/03/01 09:40:55;;;;;;;;;;;;;;;4.92;60.24;97874.88;4216507;28;5684;-69
2022/03/01 09:42:58;;;;;;;;;;;;;;;4.86;60.33;97876.22;4204159;28;5939;-69
2022/03/01 09:45:00;;;;;;;;;;;;;;;4.92;60.40;97872.25;4202312;28;5635;-70
2022/03/01 09:47:03;;;;;;;;;;;;;;;4.82;60.31;97880.06;4216231;28;5798;-71
2022/03/01 09:49:06;;;;;;;;;;;;;;;4.83;60.66;97875.66;4211883;28;5702;-72
2022/03/01 09:51:09;;;;;;;;;;;;;;;4.80;60.44;97878.53;4203780;28;5876;-66
2022/03/01 09:53:10;;;;;;;;;;;;;;;4.87;60.57;97885.75;4220149;28;5744;-67
2022/03/01 09:55:12;;;;;;;;;;;;;;;5.00;60.22;97874.22;4219455;28;5101;-73
2022/03/01 09:57:16;;;;;;;;;;;;;;;5.04;60.38;97883.47;4217325;28;7713;-67
2022/03/01 09:59:18;;;;;;;;;;;;;;;5.08;60.39;97888.31;4213953;28;5818;-73
2022/03/01 10:01:19;;;;;;;;;;;;;;;4.82;60.08;97884.47;4219143;28;5068;-73
2022/03/01 10:03:22;;;;;;;;;;;;;;;5.09;59.61;97892.59;4219795;28;5617;-70
2022/03/01 10:05:38;;;;;;;;;;;;;;;5.13;59.82;97883.53;4218522;28;5613;-70
2022/03/01 10:07:43;;;;;;;;;;;;;;;5.04;60.22;97889.53;4211695;28;5806;-71
2022/03/01 10:09:45;;;;;;;;;;;;;;;4.96;60.59;97892.00;4210945;28;5775;-72
2022/03/01 10:11:48;;;;;;;;;;;;;;;5.13;60.32;97894.00;4210481;28;5616;-72
2022/03/01 10:13:57;;;;;;;;;;;;;;;5.16;60.10;97890.28;4202490;28;5711;-69
2022/03/01 10:16:16;;;;;;;;;;;;;;;5.07;59.30;97894.53;4205377;28;5827;-73
2022/03/01 10:18:19;;;;;;;;;;;;;;;5.00;60.53;97892.56;4219396;28;5609;-73
2022/03/01 10:20:22;;;;;;;;;;;;;;;5.08;58.37;97885.69;4219489;28;5620;-72
2022/03/01 10:22:28;;;;;;;;;;;;;;;5.09;58.35;97884.72;4218953;28;5728;-71
2022/03/01 10:24:31;;;;;;;;;;;;;;;5.24;58.61;97880.81;4212135;28;6335;-74
2022/03/01 10:26:36;;;;;;;;;;;;;;;5.34;59.13;97893.94;4209911;28;5628;-69
2022/03/01 10:29:00;;;;;;;;;;;;;;;5.36;59.42;97885.94;4215264;28;5628;-70
2022/03/01 10:31:37;;;;;;;;;;;;;;;5.33;59.34;97891.47;4218121;28;5736;-70
2022/03/01 10:33:51;;;;;;;;;;;;;;;5.42;59.01;97883.59;4215012;28;5729;-71
2022/03/01 10:35:58;;;;;;;;;;;;;;;5.34;58.95;97880.84;4212805;28;6466;-71
2022/03/01 10:38:01;;;;;;;;;;;;;;;5.36;59.15;97885.94;4207794;28;5635;-72
2022/03/01 10:40:22;;;;;;;;;;;;;;;5.30;58.66;97879.41;4201848;28;5623;-72
2022/03/01 10:42:27;;;;;;;;;;;;;;;5.36;58.55;97883.31;4209733;28;5799;-71
2022/03/01 10:44:31;;;;;;;;;;;;;;;5.42;57.70;97878.34;4205188;28;5093;-69
2022/03/01 10:46:41;;;;;;;;;;;;;;;5.58;57.56;97883.09;4203284;28;5853;-68
2022/03/01 10:48:43;;;;;;;;;;;;;;;5.70;56.60;97879.38;4203726;28;5636;-72
2022/03/01 10:50:56;;;;;;;;;;;;;;;5.63;55.33;97875.63;4203668;28;5645;-68
2022/03/01 10:52:58;;;;;;;;;;;;;;;5.64;55.82;97876.47;4208911;28;5617;-66
2022/03/01 10:55:00;;;;;;;;;;;;;;;5.65;55.96;97880.75;4204401;28;5722;-67
2022/03/01 10:57:06;;;;;;;;;;;;;;;5.77;57.05;97882.28;4210721;28;5789;-66
2022/03/01 10:59:08;;;;;;;;;;;;;;;5.69;55.72;97876.91;4204716;28;5648;-65
2022/03/01 11:01:11;;;;;;;;;;;;;;;5.73;55.17;97873.84;4201147;28;5827;-65
2022/03/01 11:03:14;;;;;;;;;;;;;;;5.51;54.69;97877.53;4201602;28;5627;-66
2022/03/01 11:05:16;;;;;;;;;;;;;;;5.59;54.71;97878.69;4206212;28;5633;-68
2022/03/01 11:07:39;;;;;;;;;;;;;;;5.66;54.97;97880.59;4216545;28;5745;-64
2022/03/01 11:09:43;;;;;;;;;;;;;;;5.74;56.77;97875.50;4210417;28;5703;-64
2022/03/01 11:11:45;;;;;;;;;;;;;;;5.88;57.34;97878.69;4217969;28;5637;-64
2022/03/01 11:13:47;;;;;;;;;;;;;;;5.92;56.71;97874.88;4216775;28;5820;-67
2022/03/01 11:16:02;;;;;;;;;;;;;;;5.80;57.58;97867.09;4215979;28;5744;-63
2022/03/01 11:18:10;;;;;;;;;;;;;;;5.81;57.81;97871.38;4215673;28;5613;-67
2022/03/01 11:20:35;;;;;;;;;;;;;;;5.69;58.24;97864.63;4200989;28;5624;-64
2022/03/01 11:22:43;;;;;;;;;;;;;;;5.65;58.79;97875.50;4218716;28;5649;-65
2022/03/01 11:24:44;;;;;;;;;;;;;;;5.71;58.26;97873.16;4205057;28;5734;-64
2022/03/01 11:26:49;;;;;;;;;;;;;;;5.82;58.24;97870.41;4207128;28;5739;-70
2022/03/01 11:28:57;;;;;;;;;;;;;;;5.83;58.12;97869.44;4210417;28;5720;-63
2022/03/01 11:30:59;;;;;;;;;;;;;;;5.79;57.72;97860.22;4218557;28;5609;-65
2022/03/01 11:33:01;;;;;;;;;;;;;;;5.82;57.91;97864.34;4218768;28;6406;-66
2022/03/01 11:35:03;;;;;;;;;;;;;;;5.99;58.00;97854.97;4218771;28;5080;-62
2022/03/01 11:37:13;;;;;;;;;;;;;;;6.13;57.22;97854.56;4217696;28;5821;-62
2022/03/01 11:39:18;;;;;;;;;;;;;;;5.83;57.76;97856.31;4218445;28;5679;-67
2022/03/01 11:41:22;;;;;;;;;;;;;;;5.96;57.48;97860.50;4218768;28;5613;-67
2022/03/01 11:43:26;;;;;;;;;;;;;;;6.02;57.29;97866.03;4218561;28;5767;-66
2022/03/01 11:45:34;;;;;;;;;;;;;;;5.65;57.83;97863.22;4218860;28;5702;-64
2022/03/01 11:47:35;;;;;;;;;;;;;;;5.49;56.13;97863.75;4218545;28;5676;-63
2022/03/01 11:49:57;;;;;;;;;;;;;;;5.48;54.46;97859.47;4218012;28;5601;-66
2022/03/01 11:52:16;;;;;;;;;;;;;;;5.79;55.89;97857.59;4218229;28;5664;-65
2022/03/01 11:54:28;;;;;;;;;;;;;;;5.95;56.54;97854.44;4218188;28;5776;-62
2022/03/01 11:56:30;;;;;;;;;;;;;;;6.00;55.20;97847.00;4218035;28;5888;-62
2022/03/01 11:58:34;;;;;;;;;;;;;;;5.96;55.75;97856.09;4217797;28;6371;-63
2022/03/01 12:00:39;;;;;;;;;;;;;;;5.77;57.29;97856.88;4218219;28;5685;-65
2022/03/01 12:02:46;;;;;;;;;;;;;;;5.69;55.28;97854.13;4217875;28;5684;-65
2022/03/01 12:04:55;;;;;;;;;;;;;;;5.89;55.07;97849.72;4217233;28;6331;-63
2022/03/01 12:06:57;;;;;;;;;;;;;;;6.03;54.12;97848.50;4217137;28;5714;-67
2022/03/01 12:09:00;;;;;;;;;;;;;;;6.04;54.55;97847.53;4215074;28;5649;-65
2022/03/01 12:11:09;;;;;;;;;;;;;;;6.19;53.98;97848.75;4201394;28;5106;-63
2022/03/01 12:13:11;;;;;;;;;;;;;;;6.23;52.64;97851.91;4208976;28;7437;-63
2022/03/01 12:15:13;;;;;;;;;;;;;;;6.21;52.84;97844.19;4203253;28;5886;-65
2022/03/01 12:17:19;;;;;;;;;;;;;;;6.37;52.22;97848.88;4211711;28;5752;-65
2022/03/01 12:19:23;;;;;;;;;;;;;;;6.24;50.82;97848.34;4210112;28;5720;-64
2022/03/01 12:21:25;;;;;;;;;;;;;;;6.31;51.71;97849.44;4201349;28;5703;-66
2022/03/01 12:23:30;;;;;;;;;;;;;;;6.43;51.90;97843.03;4216886;28;5617;-63
2022/03/01 12:25:37;;;;;;;;;;;;;;;6.47;51.31;97840.97;4201068;28;5631;-63
2022/03/01 12:27:42;;;;;;;;;;;;;;;6.51;51.45;97839.72;4200899;28;5624;-63
2022/03/01 12:29:46;;;;;;;;;;;;;;;6.59;51.38;97827.53;4200916;28;5073;-66
2022/03/01 12:32:01;;;;;;;;;;;;;;;6.65;50.37;97842.72;4201069;28;7752;-63
2022/03/01 12:34:07;;;;;;;;;;;;;;;6.74;51.02;97830.53;4200845;28;5627;-63
2022/03/01 12:36:08;;;;;;;;;;;;;;;6.63;51.09;97838.56;4201165;28;5627;-65
2022/03/01 12:38:14;;;;;;;;;;;;;;;6.69;50.97;97832.75;4201184;28;5753;-64
2022/03/01 12:40:30;;;;;;;;;;;;;;;6.65;50.59;97826.13;4200765;28;6140;-64
2022/03/01 12:42:32;;;;;;;;;;;;;;;6.78;51.16;97831.88;4200772;28;5632;-66
2022/03/01 12:44:34;;;;;;;;;;;;;;;6.63;50.67;97828.06;4200479;28;5624;-63
2022/03/01 12:46:37;;;;;;;;;;;;;;;6.65;51.65;97824.31;4200838;28;5719;-63
2022/03/01 12:48:43;;;;;;;;;;;;;;;6.64;50.58;97821.84;4200624;28;5646;-64
2022/03/01 12:50:51;;;;;;;;;;;;;;;6.56;50.65;97824.34;4200929;28;5640;-66
2022/03/01 12:52:56;;;;;;;;;;;;;;;6.55;51.38;97820.06;4200688;28;5627;-63
2022/03/01 12:55:04;;;;;;;;;;;;;;;6.75;51.58;97820.84;4216393;28;5629;-63
2022/03/01 12:57:08;;;;;;;;;;;;;;;6.96;51.70;97824.91;4217416;28;6465;-63
2022/03/01 12:59:13;;;;;;;;;;;;;;;7.11;51.09;97825.22;4217140;28;6334;-63
2022/03/01 13:01:15;;;;;;;;;;;;;;;7.13;51.30;97814.56;4217594;28;5621;-63
2022/03/01 13:03:28;;;;;;;;;;;;;;;7.08;50.14;97814.19;4217484;28;5613;-63
2022/03/01 13:05:30;;;;;;;;;;;;;;;7.12;49.60;97818.16;4216858;28;5707;-63
2022/03/01 13:07:32;;;;;;;;;;;;;;;7.14;49.36;97816.25;4216964;28;5644;-63
2022/03/01 13:09:35;;;;;;;;;;;;;;;7.18;49.95;97812.34;4210654;28;6396;-63
2022/03/01 13:11:37;;;;;;;;;;;;;;;7.03;48.76;97817.28;4216866;28;5843;-63
2022/03/01 13:13:42;;;;;;;;;;;;;;;7.01;48.00;97812.13;4216966;28;5618;-63
2022/03/01 13:15:47;;;;;;;;;;;;;;;6.84;50.85;97806.84;4210563;28;5764;-62
2022/03/01 13:17:54;;;;;;;;;;;;;;;6.83;49.33;97807.81;4215720;28;5621;-62
2022/03/01 13:20:02;;;;;;;;;;;;;;;6.90;50.79;97807.06;4219591;28;5740;-63
2022/03/01 13:22:10;;;;;;;;;;;;;;;6.59;52.64;97805.69;4209861;28;5639;-60
2022/03/01 13:24:33;;;;;;;;;;;;;;;6.95;51.85;97802.22;4186899;28;5732;-62
2022/03/01 13:26:36;;;;;;;;;;;;;;;7.05;51.53;97804.81;4216852;28;5729;-64
2022/03/01 13:28:40;;;;;;;;;;;;;;;7.10;52.36;97799.09;4220129;28;5700;-61
2022/03/01 13:30:42;;;;;;;;;;;;;;;7.15;53.56;97802.13;4210471;28;5797;-61
2022/03/01 13:32:44;;;;;;;;;;;;;;;7.20;53.88;97791.97;4209618;28;5696;-61
2022/03/01 13:34:51;;;;;;;;;;;;;;;7.08;55.04;97795.78;4220492;28;5676;-66
2022/03/01 13:36:53;;;;;;;;;;;;;;;7.16;55.28;97788.00;4220610;28;5616;-62
2022/03/01 13:39:02;;;;;;;;;;;;;;;7.28;54.21;97781.56;4220369;28;5612;-63
2022/03/01 13:41:03;;;;;;;;;;;;;;;7.24;53.63;97781.00;4220528;28;5076;-62
2022/03/01 13:43:13;;;;;;;;;;;;;;;7.21;54.35;97780.47;4220279;28;5650;-60
2022/03/01 13:45:15;;;;;;;;;;;;;;;7.24;55.17;97780.19;4219798;28;5636;-62
2022/03/01 13:47:23;;;;;;;;;;;;;;;7.15;55.10;97778.47;4201980;28;5644;-62
2022/03/01 13:49:31;;;;;;;;;;;;;;;7.28;54.64;97778.94;4218238;28;5621;-61
2022/03/01 13:51:35;;;;;;;;;;;;;;;7.08;55.47;97780.84;4219120;28;5807;-61
2022/03/01 13:53:38;;;;;;;;;;;;;;;7.21;55.31;97772.59;4219807;28;5740;-62
2022/03/01 13:55:42;;;;;;;;;;;;;;;7.37;54.77;97774.59;4220077;28;5681;-62
2022/03/01 13:57:47;;;;;;;;;;;;;;;7.48;54.74;97772.56;4219245;28;5715;-62
2022/03/01 14:00:07;;;;;;;;;;;;;;;7.47;54.24;97781.41;4219267;28;5621;-61
2022/03/01 14:02:17;;;;;;;;;;;;;;;7.59;54.21;97774.97;4219838;28;5609;-62
2022/03/01 14:04:24;;;;;;;;;;;;;;;7.52;53.92;97773.91;4201371;28;6329;-62
2022/03/01 14:06:26;;;;;;;;;;;;;;;7.42;54.04;97775.78;4219850;28;5709;-61
2022/03/01 14:08:29;;;;;;;;;;;;;;;7.49;53.52;97771.59;4208251;28;5651;-61
2022/03/01 14:10:34;;;;;;;;;;;;;;;7.54;53.35;97771.13;4210735;28;5884;-61
2022/03/01 14:12:41;;;;;;;;;;;;;;;7.59;53.28;97774.16;4203002;28;5643;-61
2022/03/01 14:14:50;;;;;;;;;;;;;;;7.46;53.46;97766.59;4202548;28;5639;-60
2022/03/01 14:16:52;;;;;;;;;;;;;;;7.52;53.91;97765.19;4188856;28;6342;-63
2022/03/01 14:19:04;;;;;;;;;;;;;;;7.51;53.41;97760.91;4215721;28;6401;-62
2022/03/01 14:21:09;;;;;;;;;;;;;;;7.51;52.37;97755.63;4219078;28;5609;-63
2022/03/01 14:23:11;;;;;;;;;;;;;;;7.43;52.03;97752.94;4213281;28;5760;-62
2022/03/01 14:25:13;;;;;;;;;;;;;;;7.41;50.14;97755.72;4201083;28;5647;-65
2022/03/01 14:27:17;;;;;;;;;;;;;;;7.40;50.50;97748.78;4218383;28;5800;-61
2022/03/01 14:29:19;;;;;;;;;;;;;;;7.22;50.65;97750.56;4216755;28;5727;-62
2022/03/01 14:31:22;;;;;;;;;;;;;;;7.41;50.80;97745.19;4219272;28;5719;-61
2022/03/01 14:33:28;;;;;;;;;;;;;;;7.37;51.96;97749.09;4218771;28;5187;-64
2022/03/01 14:35:30;;;;;;;;;;;;;;;7.50;52.22;97746.09;4219473;28;7693;-64
2022/03/01 14:37:32;;;;;;;;;;;;;;;7.53;52.26;97743.97;4218690;28;5798;-62
2022/03/01 14:39:34;;;;;;;;;;;;;;;7.56;52.08;97738.41;4218578;28;5614;-62
2022/03/01 14:41:36;;;;;;;;;;;;;;;7.57;52.82;97739.22;4218852;28;5676;-61
2022/03/01 14:43:39;;;;;;;;;;;;;;;7.52;53.60;97731.81;4218388;28;5806;-63
2022/03/01 14:45:41;;;;;;;;;;;;;;;7.62;53.94;97738.78;4217163;28;5646;-62
2022/03/01 14:47:43;;;;;;;;;;;;;;;7.55;54.42;97734.13;4206884;28;5645;-61
2022/03/01 14:49:45;;;;;;;;;;;;;;;7.63;54.16;97735.19;4202993;28;5635;-61
2022/03/01 14:51:46;;;;;;;;;;;;;;;7.75;54.47;97736.59;4214712;28;5672;-64
2022/03/01 14:53:48;;;;;;;;;;;;;;;7.83;54.58;97731.41;4218890;28;5628;-62
2022/03/01 14:55:51;;;;;;;;;;;;;;;7.84;55.19;97731.25;4218953;28;5760;-64
2022/03/01 14:57:53;;;;;;;;;;;;;;;7.87;55.10;97730.13;4218653;28;5621;-67
2022/03/01 14:59:55;;;;;;;;;;;;;;;7.84;55.38;97733.06;4218357;28;5741;-65
2022/03/01 15:01:57;;;;;;;;;;;;;;;7.72;56.03;97718.50;4218797;28;6209;-62
2022/03/01 15:04:00;;;;;;;;;;;;;;;7.85;55.28;97724.19;4218291;28;6328;-66
2022/03/01 15:06:02;;;;;;;;;;;;;;;7.87;55.50;97724.84;4218769;28;5616;-67
2022/03/01 15:08:04;;;;;;;;;;;;;;;7.83;55.69;97726.97;4217901;28;5620;-61
2022/03/01 15:10:09;;;;;;;;;;;;;;;7.87;55.63;97724.84;4209868;28;5804;-61
2022/03/01 15:12:11;;;;;;;;;;;;;;;7.80;54.99;97729.06;4218932;28;5703;-61
2022/03/01 15:14:14;;;;;;;;;;;;;;;7.84;54.55;97725.16;4217315;28;5632;-62
2022/03/01 15:16:15;;;;;;;;;;;;;;;7.83;54.42;97715.63;4218150;28;5628;-61
2022/03/01 15:18:22;;;;;;;;;;;;;;;7.73;54.22;97720.13;4218258;28;5657;-62
2022/03/01 15:20:24;;;;;;;;;;;;;;;7.73;53.92;97718.34;4218441;28;5919;-61
2022/03/01 15:22:26;;;;;;;;;;;;;;;7.72;54.06;97708.78;4217116;28;5629;-60
2022/03/01 15:24:28;;;;;;;;;;;;;;;7.77;54.29;97719.66;4203458;28;5647;-62
2022/03/01 15:26:30;;;;;;;;;;;;;;;7.69;54.52;97713.50;4206017;28;5712;-61
2022/03/01 15:28:36;;;;;;;;;;;;;;;7.73;54.66;97720.13;4218043;28;5691;-61
2022/03/01 15:30:38;;;;;;;;;;;;;;;7.67;54.58;97718.94;4207063;28;5828;-63
2022/03/01 15:32:40;;;;;;;;;;;;;;;7.63;55.25;97717.59;4217098;28;6172;-63
2022/03/01 15:34:42;;;;;;;;;;;;;;;7.64;55.91;97715.78;4206258;28;5625;-62
2022/03/01 15:36:44;;;;;;;;;;;;;;;7.61;56.30;97711.66;4211296;28;5812;-64
2022/03/01 15:38:46;;;;;;;;;;;;;;;7.48;56.57;97713.84;4217499;28;5689;-63
2022/03/01 15:40:48;;;;;;;;;;;;;;;7.49;55.84;97710.25;4211164;28;5617;-62
2022/03/01 15:42:50;;;;;;;;;;;;;;;7.62;56.06;97717.75;4214277;28;5613;-59
2022/03/01 15:44:52;;;;;;;;;;;;;;;7.55;56.06;97715.69;4212797;28;6421;-61
2022/03/01 15:46:53;;;;;;;;;;;;;;;7.64;55.41;97719.25;4215839;28;5712;-61
2022/03/01 15:48:55;;;;;;;;;;;;;;;7.68;55.11;97723.22;4210686;28;5960;-64
2022/03/01 15:50:57;;;;;;;;;;;;;;;7.63;55.54;97716.75;4200780;28;6887;-62
2022/03/01 15:52:59;;;;;;;;;;;;;;;7.53;56.03;97715.03;4207991;28;5766;-63
2022/03/01 15:55:01;;;;;;;;;;;;;;;7.55;55.86;97705.19;4211468;28;5705;-65
2022/03/01 15:57:06;;;;;;;;;;;;;;;7.54;55.83;97706.16;4205816;28;5798;-64
2022/03/01 15:59:10;;;;;;;;;;;;;;;7.47;55.62;97702.47;4212596;28;5720;-63
2022/03/01 16:01:14;;;;;;;;;;;;;;;7.53;55.60;97701.88;4204561;28;5738;-65
2022/03/01 16:03:16;;;;;;;;;;;;;;;7.34;55.07;97696.78;4205684;28;5794;-64
2022/03/01 16:05:18;;;;;;;;;;;;;;;7.32;54.84;97692.66;4211714;28;5723;-63
2022/03/01 16:07:20;;;;;;;;;;;;;;;7.27;54.68;97693.94;4204002;28;5782;-66
2022/03/01 16:09:21;;;;;;;;;;;;;;;7.18;55.47;97688.75;4204699;28;5712;-63
2022/03/01 16:11:25;;;;;;;;;;;;;;;7.21;55.24;97693.69;4203109;28;5718;-62